BGO weather

Bergen Airport Flesland
Bergen, Hordaland, Norway

Public forecast

Using degrees Celsius for public forecast. Weather courtesy of forecast.io.

Current aviation weather report (METAR) for Bergen Airport Flesland

Retrieved 2020/06/06 14:20 UTC (5 minutes ago):

ENBR 061420Z 32012KT 9999 VCSH FEW013 SCT016CB BKN063 12/09 Q0991 TEMPO SHRA BKN012 RMK WIND 1200FT 31018KT

Aviation forecast (TAF) for Bergen Airport Flesland

Retrieved 2020/06/06 12:57 UTC (1 hour ago):

TAF ENBR 061100Z 0612/0712 33010KT 9999 FEW012 BKN030 PROB40 TEMPO 0614/0712 SHRA BKN006 FEW015CB BECMG 0616/0618 VRB03KT BECMG 0704/0706 33010KT